createdAt,value
2022-08-10T00:01:35.929Z,38.43
2022-08-10T00:04:03.094Z,38.49
2022-08-10T00:06:29.900Z,38.50
2022-08-10T00:08:56.794Z,38.68
2022-08-10T00:11:24.238Z,38.84
2022-08-10T00:13:51.442Z,38.52
2022-08-10T00:16:18.698Z,38.97
2022-08-10T00:18:45.558Z,38.76
2022-08-10T00:21:12.382Z,39.10
2022-08-10T00:23:39.285Z,38.95
2022-08-10T00:26:07.309Z,38.94
2022-08-10T00:28:34.330Z,39.34
2022-08-10T00:31:01.144Z,39.19
2022-08-10T00:33:27.964Z,39.47
2022-08-10T00:35:54.773Z,39.45
2022-08-10T00:38:21.967Z,39.53
2022-08-10T00:40:48.766Z,39.62
2022-08-10T00:43:15.684Z,39.61
2022-08-10T00:45:58.849Z,39.49
2022-08-10T00:48:30.300Z,39.63
2022-08-10T00:50:59.625Z,39.57
2022-08-10T00:53:28.536Z,39.79
2022-08-10T00:56:35.186Z,39.95
2022-08-10T00:58:43.057Z,40.06
2022-08-10T01:02:07.740Z,40.12
2022-08-10T01:04:57.398Z,39.98
2022-08-10T01:07:32.570Z,40.05
2022-08-10T01:10:34.610Z,40.05
2022-08-10T01:13:22.290Z,40.29
2022-08-10T01:15:55.530Z,40.39
2022-08-10T01:18:58.941Z,40.19
2022-08-10T01:22:04.860Z,40.41
2022-08-10T01:25:11.226Z,40.15
2022-08-10T01:28:22.144Z,40.36
2022-08-10T01:30:53.934Z,40.67
2022-08-10T01:34:01.861Z,40.66
2022-08-10T01:36:34.795Z,40.80
2022-08-10T01:39:04.404Z,40.83
2022-08-10T01:41:46.349Z,40.80
2022-08-10T01:44:19.884Z,41.20
2022-08-10T01:46:52.989Z,41.41
2022-08-10T01:49:24.730Z,41.09
2022-08-10T01:51:55.366Z,41.60
2022-08-10T01:54:25.755Z,41.23
2022-08-10T01:56:57.294Z,41.21
2022-08-10T01:59:33.980Z,41.20
2022-08-10T02:02:06.510Z,41.65
2022-08-10T02:04:38.239Z,41.70
2022-08-10T02:07:08.460Z,41.61
2022-08-10T02:09:42.657Z,41.88
2022-08-10T02:12:14.104Z,41.93
2022-08-10T02:14:51.474Z,41.91
2022-08-10T02:17:59.498Z,41.91
2022-08-10T02:20:24.436Z,41.68
2022-08-10T02:23:08.619Z,41.75
2022-08-10T02:25:42.526Z,42.27
2022-08-10T02:28:30.574Z,42.40
2022-08-10T02:31:12.911Z,42.23
2022-08-10T02:33:57.749Z,42.20
2022-08-10T02:36:34.370Z,42.47
2022-08-10T02:39:05.926Z,42.74
2022-08-10T02:45:08.205Z,42.58
2022-08-10T02:45:29.242Z,42.54
2022-08-10T02:48:20.387Z,42.44
2022-08-10T02:50:58.117Z,42.56
2022-08-10T02:53:55.031Z,42.74
2022-08-10T02:56:32.762Z,42.96
2022-08-10T02:59:16.357Z,43.04
2022-08-10T03:01:48.894Z,42.93
2022-08-10T03:04:55.156Z,42.86
2022-08-10T03:07:16.651Z,43.18
2022-08-10T03:09:45.583Z,43.02
2022-08-10T03:12:35.627Z,43.17
2022-08-10T03:15:03.227Z,43.19
2022-08-10T03:17:30.912Z,43.33
2022-08-10T03:20:35.045Z,43.31
2022-08-10T03:22:48.146Z,43.43
2022-08-10T03:25:15.862Z,43.65
2022-08-10T03:27:43.570Z,43.66
2022-08-10T03:30:29.440Z,43.54
2022-08-10T03:32:59.004Z,43.68
2022-08-10T03:35:26.274Z,43.71
2022-08-10T03:37:59.117Z,43.91
2022-08-10T03:40:45.465Z,43.90
2022-08-10T03:43:21.135Z,44.09
2022-08-10T03:45:54.777Z,44.03
2022-08-10T03:48:30.080Z,43.91
2022-08-10T03:51:01.295Z,44.18
2022-08-10T03:54:02.759Z,44.05
2022-08-10T03:56:30.252Z,44.20
2022-08-10T03:58:58.617Z,44.19
2022-08-10T04:02:43.146Z,44.22
2022-08-10T04:04:17.805Z,44.47
2022-08-10T04:06:51.575Z,44.54
2022-08-10T04:09:21.449Z,44.63
2022-08-10T04:11:48.390Z,44.44
2022-08-10T04:14:38.596Z,44.63
2022-08-10T04:17:02.123Z,44.66
2022-08-10T04:19:35.645Z,44.78
2022-08-10T04:22:15.431Z,44.71
2022-08-10T04:24:45.592Z,44.62
2022-08-10T04:27:12.973Z,44.86
2022-08-10T04:29:39.905Z,44.85
2022-08-10T04:32:10.437Z,45.12
2022-08-10T04:34:44.020Z,45.13
2022-08-10T04:37:12.951Z,44.87
2022-08-10T04:39:40.332Z,45.03
2022-08-10T04:42:07.497Z,45.10
2022-08-10T04:44:36.369Z,45.14
2022-08-10T04:47:03.429Z,45.17
2022-08-10T04:49:55.190Z,45.41
2022-08-10T04:52:17.351Z,45.01
2022-08-10T04:54:44.157Z,45.18
2022-08-10T04:57:11.586Z,45.15
2022-08-10T04:59:38.465Z,45.33
2022-08-10T05:02:28.632Z,45.46
2022-08-10T05:04:52.149Z,45.61
2022-08-10T05:07:18.982Z,45.24
2022-08-10T05:10:02.780Z,45.47
2022-08-10T05:12:35.603Z,44.84
2022-08-10T05:15:14.426Z,44.09
2022-08-10T05:18:09.002Z,43.42
2022-08-10T05:20:29.776Z,42.62
2022-08-10T05:22:56.577Z,42.14
2022-08-10T05:25:23.374Z,41.45
2022-08-10T05:27:52.312Z,40.68
2022-08-10T05:30:22.232Z,40.32
2022-08-10T05:32:56.390Z,39.51
2022-08-10T05:35:27.626Z,39.24
2022-08-10T05:38:12.963Z,38.31
2022-08-10T05:40:47.496Z,38.23
2022-08-10T05:43:20.526Z,37.63
2022-08-10T05:46:17.288Z,37.55
2022-08-10T05:48:58.978Z,37.40
2022-08-10T05:51:29.135Z,37.06
2022-08-10T05:54:02.964Z,37.18
2022-08-10T05:56:56.299Z,37.71
2022-08-10T06:00:29.575Z,37.47
2022-08-10T06:02:41.417Z,38.00
2022-08-10T06:05:14.242Z,38.08
2022-08-10T06:08:17.640Z,37.96
2022-08-10T06:11:03.174Z,37.47
2022-08-10T06:13:59.554Z,37.47
2022-08-10T06:16:43.177Z,37.45
2022-08-10T06:19:12.045Z,36.82
2022-08-10T06:21:55.316Z,36.27
2022-08-10T06:24:36.247Z,36.18
2022-08-10T06:27:03.290Z,36.19
2022-08-10T06:29:34.035Z,35.50
2022-08-10T06:32:02.984Z,35.45
2022-08-10T06:34:34.287Z,34.73
2022-08-10T06:37:05.515Z,34.87
2022-08-10T06:39:34.497Z,34.64
2022-08-10T06:42:32.472Z,34.49
2022-08-10T06:45:03.232Z,34.06
2022-08-10T06:47:59.683Z,34.12
2022-08-10T06:50:56.413Z,33.48
2022-08-10T06:53:53.012Z,33.41
2022-08-10T06:56:36.862Z,33.68
2022-08-10T06:59:32.579Z,33.82
2022-08-10T07:02:13.295Z,33.49
2022-08-10T07:04:59.486Z,33.66
2022-08-10T07:07:30.897Z,32.98
2022-08-10T07:10:01.592Z,32.90
2022-08-10T07:12:30.933Z,32.56
2022-08-10T07:14:59.314Z,32.45
2022-08-10T07:17:28.060Z,31.60
2022-08-10T07:19:58.014Z,30.95
2022-08-10T07:23:22.823Z,30.33
2022-08-10T07:25:25.067Z,30.13
2022-08-10T07:28:00.735Z,29.95
2022-08-10T07:30:37.082Z,29.92
2022-08-10T07:33:05.846Z,29.95
2022-08-10T07:35:43.191Z,30.14
2022-08-10T07:38:22.088Z,30.18
2022-08-10T07:40:52.057Z,30.20
2022-08-10T07:43:23.798Z,29.65
2022-08-10T07:45:51.786Z,29.42
2022-08-10T07:48:47.025Z,29.36
2022-08-10T07:51:16.477Z,28.73
2022-08-10T07:53:51.095Z,28.86
2022-08-10T07:56:47.487Z,28.43
2022-08-10T07:59:12.262Z,28.67
2022-08-10T08:01:50.237Z,28.00
2022-08-10T08:04:19.722Z,27.98
2022-08-10T08:06:48.094Z,27.94
2022-08-10T08:09:15.074Z,28.61
2022-08-10T08:11:44.595Z,28.74
2022-08-10T08:14:12.945Z,28.70
2022-08-10T08:16:45.812Z,28.53
2022-08-10T08:19:37.812Z,28.40
2022-08-10T08:24:06.977Z,28.31
2022-08-10T08:24:52.058Z,28.06
2022-08-10T08:27:20.406Z,27.90
2022-08-10T08:29:49.897Z,28.07
2022-08-10T08:32:22.572Z,28.63
2022-08-10T08:34:54.840Z,28.41
2022-08-10T08:38:29.470Z,28.08
2022-08-10T08:40:37.027Z,28.85
2022-08-10T08:43:35.859Z,29.13
2022-08-10T08:46:44.456Z,29.17
2022-08-10T08:49:41.385Z,28.51
2022-08-10T08:52:42.276Z,28.41
2022-08-10T08:56:04.199Z,28.72
2022-08-10T08:58:32.784Z,28.90
2022-08-10T09:01:38.214Z,29.05
2022-08-10T09:04:27.549Z,29.10
2022-08-10T09:07:59.900Z,29.31
2022-08-10T09:10:49.728Z,29.52
2022-08-10T09:13:34.613Z,29.68
2022-08-10T09:16:28.080Z,29.72
2022-08-10T09:19:11.535Z,29.26
2022-08-10T09:22:38.246Z,29.38
2022-08-10T09:25:21.988Z,29.66
2022-08-10T09:28:08.259Z,28.93
2022-08-10T09:31:21.371Z,29.36
2022-08-10T09:36:20.493Z,29.11
2022-08-10T09:37:08.986Z,29.45
2022-08-10T09:40:06.719Z,29.28
2022-08-10T09:43:14.273Z,29.04
2022-08-10T09:46:11.873Z,29.20
2022-08-10T09:48:51.210Z,29.04
2022-08-10T09:51:47.678Z,29.36
2022-08-10T09:54:56.119Z,29.01
2022-08-10T09:57:46.313Z,28.82
2022-08-10T10:00:18.956Z,28.84
2022-08-10T10:03:27.309Z,28.53
2022-08-10T10:06:33.086Z,28.65
2022-08-10T10:09:11.405Z,28.29
2022-08-10T10:12:09.684Z,28.35
2022-08-10T10:15:24.185Z,28.27
2022-08-10T10:18:20.503Z,28.11
2022-08-10T10:21:53.919Z,28.01
2022-08-10T10:24:28.825Z,27.72
2022-08-10T10:27:38.096Z,27.97
2022-08-10T10:30:09.938Z,28.05
2022-08-10T10:32:59.359Z,27.88
2022-08-10T10:35:43.830Z,27.77
2022-08-10T10:38:13.358Z,27.96
2022-08-10T10:41:03.036Z,28.04
2022-08-10T10:43:54.378Z,27.78
2022-08-10T10:46:52.053Z,27.53
2022-08-10T10:49:42.668Z,27.60
2022-08-10T10:53:08.081Z,27.65
2022-08-10T10:56:13.603Z,27.60
2022-08-10T10:59:53.477Z,27.24
2022-08-10T11:02:59.079Z,27.42
2022-08-10T11:06:01.964Z,28.02
2022-08-10T11:08:39.451Z,27.53
2022-08-10T11:11:25.344Z,27.78
2022-08-10T11:14:26.403Z,27.57
2022-08-10T11:17:07.725Z,27.45
2022-08-10T11:20:04.470Z,27.42
2022-08-10T11:22:57.844Z,27.44
2022-08-10T11:25:31.959Z,27.72
2022-08-10T11:28:14.648Z,27.33
2022-08-10T11:31:15.752Z,27.46
2022-08-10T11:34:49.182Z,27.35
2022-08-10T11:37:22.659Z,27.36
2022-08-10T11:40:01.152Z,27.32
2022-08-10T11:43:09.234Z,27.04
2022-08-10T11:45:52.001Z,26.90
2022-08-10T11:48:53.854Z,26.64
2022-08-10T11:51:28.771Z,26.43
2022-08-10T11:54:37.522Z,26.60
2022-08-10T11:57:04.455Z,26.58
2022-08-10T11:59:58.044Z,26.41
2022-08-10T12:02:56.037Z,26.48
2022-08-10T12:05:51.936Z,26.36
2022-08-10T12:10:08.871Z,26.19
2022-08-10T12:11:25.469Z,25.89
2022-08-10T12:14:23.699Z,25.87
2022-08-10T12:17:00.910Z,25.85
2022-08-10T12:19:59.759Z,26.07
2022-08-10T12:22:56.985Z,25.87
2022-08-10T12:26:07.511Z,26.05
2022-08-10T12:29:11.902Z,25.87
2022-08-10T12:31:48.283Z,25.76
2022-08-10T12:34:55.536Z,25.88
2022-08-10T12:38:03.184Z,25.63
2022-08-10T12:40:39.661Z,25.25
2022-08-10T12:44:07.841Z,25.46
2022-08-10T12:46:29.709Z,25.57
2022-08-10T12:49:29.182Z,25.59
2022-08-10T12:52:14.923Z,25.42
2022-08-10T12:54:43.097Z,25.42
2022-08-10T12:57:17.533Z,25.62
2022-08-10T12:59:50.132Z,25.16
2022-08-10T13:02:24.968Z,25.28
2022-08-10T13:04:56.468Z,25.35
2022-08-10T13:08:24.677Z,25.08
2022-08-10T13:10:20.971Z,24.48
2022-08-10T13:12:51.200Z,24.72
2022-08-10T13:15:49.305Z,24.51
2022-08-10T13:18:25.259Z,24.11
2022-08-10T13:20:56.523Z,24.35
2022-08-10T13:23:30.049Z,24.20
2022-08-10T13:25:59.613Z,24.44
2022-08-10T13:28:47.380Z,24.52
2022-08-10T13:31:29.637Z,24.36
2022-08-10T13:34:44.028Z,24.46
2022-08-10T13:37:16.164Z,24.45
2022-08-10T13:39:58.743Z,24.58
2022-08-10T13:42:34.192Z,24.00
2022-08-10T13:45:11.198Z,23.99
2022-08-10T13:47:49.621Z,24.27
2022-08-10T13:50:35.494Z,24.13
2022-08-10T13:53:14.848Z,24.01
2022-08-10T13:55:56.483Z,24.09
2022-08-10T13:58:32.516Z,24.13
2022-08-10T14:01:02.039Z,23.78
2022-08-10T14:03:35.531Z,23.84
2022-08-10T14:06:05.242Z,23.80
2022-08-10T14:08:33.055Z,23.47
2022-08-10T14:11:11.494Z,23.49
2022-08-10T14:14:17.307Z,23.23
2022-08-10T14:16:45.402Z,23.60
2022-08-10T14:19:19.254Z,23.88
2022-08-10T14:21:46.920Z,23.74
2022-08-10T14:24:31.619Z,23.35
2022-08-10T14:27:11.682Z,23.53
2022-08-10T14:29:47.891Z,23.36
2022-08-10T14:32:19.337Z,23.48
2022-08-10T14:36:15.457Z,23.25
2022-08-10T14:37:38.954Z,23.56
2022-08-10T14:40:13.971Z,23.29
2022-08-10T14:43:09.303Z,23.13
2022-08-10T14:45:39.012Z,23.63
2022-08-10T14:48:13.279Z,23.16
2022-08-10T14:50:54.916Z,23.51
2022-08-10T14:53:28.912Z,23.32
2022-08-10T14:56:02.163Z,23.14
2022-08-10T14:58:38.934Z,23.16
2022-08-10T15:01:25.999Z,23.23
2022-08-10T15:04:16.536Z,23.27
2022-08-10T15:07:12.671Z,23.27
2022-08-10T15:10:00.725Z,23.46
2022-08-10T15:12:38.765Z,23.10
2022-08-10T15:15:10.103Z,22.97
2022-08-10T15:17:44.274Z,23.04
2022-08-10T15:20:21.111Z,23.73
2022-08-10T15:23:30.774Z,23.64
2022-08-10T15:26:10.800Z,23.20
2022-08-10T15:29:22.745Z,23.46
2022-08-10T15:31:55.733Z,23.31
2022-08-10T15:34:43.265Z,23.30
2022-08-10T15:37:39.423Z,23.49
2022-08-10T15:40:23.862Z,23.11
2022-08-10T15:43:25.122Z,23.16
2022-08-10T15:45:59.119Z,23.31
2022-08-10T15:48:31.686Z,23.17
2022-08-10T15:51:06.005Z,23.15
2022-08-10T15:53:51.169Z,23.51
2022-08-10T15:56:33.355Z,23.51
2022-08-10T15:59:30.078Z,23.28
2022-08-10T16:02:14.762Z,24.03
2022-08-10T16:05:05.462Z,23.56
2022-08-10T16:07:45.388Z,23.59
2022-08-10T16:10:26.235Z,23.27
2022-08-10T16:13:01.065Z,23.50
2022-08-10T16:15:30.302Z,23.41
2022-08-10T16:18:18.546Z,23.40
2022-08-10T16:20:55.387Z,23.33
2022-08-10T16:23:34.151Z,23.24
2022-08-10T16:26:17.509Z,23.41
2022-08-10T16:29:00.418Z,23.77
2022-08-10T16:31:32.164Z,23.35
2022-08-10T16:34:04.017Z,23.52
2022-08-10T16:36:41.680Z,23.60
2022-08-10T16:39:15.671Z,23.43
2022-08-10T16:42:05.522Z,23.47
2022-08-10T16:45:04.598Z,23.75
2022-08-10T16:47:36.065Z,23.40
2022-08-10T16:50:08.526Z,23.14
2022-08-10T16:52:36.187Z,23.14
2022-08-10T16:55:48.123Z,23.61
2022-08-10T16:58:15.865Z,23.40
2022-08-10T17:00:45.322Z,23.32
2022-08-10T17:04:04.709Z,23.40
2022-08-10T17:06:10.722Z,23.65
2022-08-10T17:08:48.569Z,23.51
2022-08-10T17:11:19.122Z,23.35
2022-08-10T17:13:46.633Z,23.44
2022-08-10T17:16:16.896Z,23.34
2022-08-10T17:18:46.863Z,23.78
2022-08-10T17:21:21.301Z,23.59
2022-08-10T17:23:53.368Z,23.43
2022-08-10T17:26:26.319Z,23.41
2022-08-10T17:29:58.027Z,23.43
2022-08-10T17:32:30.813Z,23.43
2022-08-10T17:35:01.763Z,23.50
2022-08-10T17:37:35.408Z,23.84
2022-08-10T17:40:17.277Z,23.97
2022-08-10T17:42:49.999Z,23.69
2022-08-10T17:45:46.931Z,23.85
2022-08-10T17:48:13.315Z,23.72
2022-08-10T17:50:43.206Z,24.02
2022-08-10T17:53:21.496Z,23.65
2022-08-10T17:55:54.602Z,23.79
2022-08-10T17:58:25.067Z,23.79
2022-08-10T18:01:38.716Z,24.15
2022-08-10T18:03:54.678Z,24.18
2022-08-10T18:06:22.943Z,24.26
2022-08-10T18:08:57.021Z,24.13
2022-08-10T18:11:32.466Z,24.24
2022-08-10T18:14:06.450Z,24.39
2022-08-10T18:16:34.506Z,24.12
2022-08-10T18:19:12.002Z,24.31
2022-08-10T18:21:44.806Z,24.60
2022-08-10T18:24:17.938Z,24.44
2022-08-10T18:26:51.464Z,24.64
2022-08-10T18:29:23.344Z,24.47
2022-08-10T18:31:57.768Z,24.79
2022-08-10T18:34:26.066Z,24.87
2022-08-10T18:36:54.046Z,24.98
2022-08-10T18:39:29.269Z,24.91
2022-08-10T18:42:18.633Z,24.80
2022-08-10T18:44:52.438Z,25.08
2022-08-10T18:47:30.735Z,25.24
2022-08-10T18:50:24.202Z,25.07
2022-08-10T18:52:58.187Z,25.39
2022-08-10T18:55:46.244Z,25.47
2022-08-10T18:58:51.317Z,25.70
2022-08-10T19:01:49.145Z,25.63
2022-08-10T19:04:42.781Z,25.70
2022-08-10T19:08:03.874Z,26.09
2022-08-10T19:11:10.080Z,26.18
2022-08-10T19:14:20.089Z,25.98
2022-08-10T19:16:57.446Z,26.14
2022-08-10T19:19:56.045Z,26.20
2022-08-10T19:22:55.879Z,26.15
2022-08-10T19:26:42.217Z,26.25
2022-08-10T19:29:16.782Z,26.43
2022-08-10T19:32:09.098Z,26.81
2022-08-10T19:34:53.257Z,26.94
2022-08-10T19:37:37.055Z,27.06
2022-08-10T19:40:11.901Z,27.23
2022-08-10T19:42:53.610Z,27.03
2022-08-10T19:45:56.117Z,27.33
2022-08-10T19:48:59.374Z,27.42
2022-08-10T19:51:48.723Z,27.16
2022-08-10T19:54:32.293Z,27.64
2022-08-10T19:57:23.133Z,27.73
2022-08-10T20:00:27.034Z,27.38
2022-08-10T20:03:35.207Z,27.31
2022-08-10T20:06:20.025Z,27.61
2022-08-10T20:09:06.695Z,27.85
2022-08-10T20:11:49.505Z,27.43
2022-08-10T20:14:25.946Z,27.94
2022-08-10T20:17:01.501Z,27.74
2022-08-10T20:19:54.769Z,27.48
2022-08-10T20:22:37.333Z,27.82
2022-08-10T20:25:26.427Z,27.62
2022-08-10T20:28:40.682Z,27.76
2022-08-10T20:31:18.031Z,27.86
2022-08-10T20:34:01.854Z,27.82
2022-08-10T20:36:33.948Z,27.96
2022-08-10T20:39:15.092Z,28.19
2022-08-10T20:42:04.674Z,27.82
2022-08-10T20:44:43.351Z,28.03
2022-08-10T20:47:27.624Z,28.25
2022-08-10T20:50:21.698Z,28.32
2022-08-10T20:52:52.147Z,28.30
2022-08-10T20:55:22.379Z,28.35
2022-08-10T20:58:28.175Z,28.22
2022-08-10T21:01:17.082Z,28.63
2022-08-10T21:04:13.494Z,28.54
2022-08-10T21:07:28.680Z,28.61
2022-08-10T21:10:35.833Z,28.60
2022-08-10T21:13:44.518Z,28.68
2022-08-10T21:17:03.844Z,28.91
2022-08-10T21:20:01.049Z,28.83
2022-08-10T21:22:37.298Z,29.31
2022-08-10T21:25:15.429Z,29.47
2022-08-10T21:28:41.290Z,29.10
2022-08-10T21:31:41.470Z,29.41
2022-08-10T21:34:56.232Z,29.52
2022-08-10T21:37:58.759Z,29.77
2022-08-10T21:41:18.052Z,30.01
2022-08-10T21:44:08.683Z,29.77
2022-08-10T21:47:39.522Z,30.09
2022-08-10T21:50:28.003Z,30.29
2022-08-10T21:53:44.586Z,30.32
2022-08-10T21:56:48.494Z,30.37
2022-08-10T21:59:56.079Z,30.69
2022-08-10T22:02:49.760Z,30.72
2022-08-10T22:05:44.145Z,30.81
2022-08-10T22:08:33.773Z,30.65
2022-08-10T22:11:22.465Z,31.06
2022-08-10T22:14:09.305Z,31.26
2022-08-10T22:17:59.660Z,31.37
2022-08-10T22:20:41.242Z,31.22
2022-08-10T22:23:55.217Z,31.24
2022-08-10T22:27:46.447Z,31.29
2022-08-10T22:30:25.097Z,31.46
2022-08-10T22:33:40.367Z,31.60
2022-08-10T22:36:50.916Z,31.72
2022-08-10T22:40:23.311Z,31.56
2022-08-10T22:43:12.811Z,31.82
2022-08-10T22:46:17.384Z,32.12
2022-08-10T22:48:59.273Z,31.95
2022-08-10T22:51:54.325Z,31.96
2022-08-10T22:54:49.843Z,31.93
2022-08-10T22:57:36.921Z,32.32
2022-08-10T23:00:14.153Z,32.42
2022-08-10T23:02:50.965Z,32.55
2022-08-10T23:05:30.559Z,32.36
2022-08-10T23:08:29.935Z,32.60
2022-08-10T23:11:05.397Z,32.58
2022-08-10T23:13:36.961Z,32.83
2022-08-10T23:16:28.452Z,32.80
2022-08-10T23:19:10.632Z,32.86
2022-08-10T23:22:04.288Z,33.07
2022-08-10T23:24:38.664Z,33.07
2022-08-10T23:27:12.075Z,33.22
2022-08-10T23:30:03.813Z,33.48
2022-08-10T23:32:33.316Z,33.70
2022-08-10T23:36:29.930Z,33.51
2022-08-10T23:37:56.210Z,33.56
2022-08-10T23:40:23.601Z,33.85
2022-08-10T23:42:52.509Z,33.72
2022-08-10T23:45:23.918Z,33.75
2022-08-10T23:47:56.977Z,33.73
2022-08-10T23:50:25.029Z,33.97
2022-08-10T23:53:01.133Z,33.99
2022-08-10T23:55:49.125Z,34.07
2022-08-10T23:58:31.919Z,34.38
